createdAt,value
2022-10-02T00:01:28.435Z,6.40
2022-10-02T00:04:00.372Z,5.90
2022-10-02T00:06:30.591Z,6.45
2022-10-02T00:09:00.382Z,6.25
2022-10-02T00:11:29.011Z,5.78
2022-10-02T00:14:00.162Z,5.60
2022-10-02T00:16:30.311Z,5.82
2022-10-02T00:18:59.203Z,5.32
2022-10-02T00:21:34.384Z,5.53
2022-10-02T00:24:03.145Z,5.45
2022-10-02T00:26:34.812Z,5.03
2022-10-02T00:29:06.463Z,5.65
2022-10-02T00:31:37.397Z,5.50
2022-10-02T00:34:19.826Z,5.20
2022-10-02T00:36:50.105Z,4.82
2022-10-02T00:39:23.883Z,5.03
2022-10-02T00:42:04.717Z,4.15
2022-10-02T00:44:41.128Z,4.43
2022-10-02T00:47:13.159Z,5.13
2022-10-02T00:49:48.873Z,4.93
2022-10-02T00:52:24.914Z,4.15
2022-10-02T00:55:03.851Z,4.40
2022-10-02T00:57:38.794Z,4.03
2022-10-02T01:00:09.411Z,4.32
2022-10-02T01:02:45.494Z,4.05
2022-10-02T01:05:14.644Z,4.15
2022-10-02T01:07:43.114Z,3.80
2022-10-02T01:10:11.223Z,3.75
2022-10-02T01:12:41.309Z,4.15
2022-10-02T01:15:12.610Z,3.80
2022-10-02T01:17:40.639Z,3.38
2022-10-02T01:20:09.142Z,3.80
2022-10-02T01:22:45.582Z,4.78
2022-10-02T01:25:14.516Z,3.85
2022-10-02T01:27:42.133Z,4.68
2022-10-02T01:30:11.510Z,3.60
2022-10-02T01:32:41.800Z,3.53
2022-10-02T01:35:11.484Z,3.20
2022-10-02T01:37:40.660Z,3.60
2022-10-02T01:40:15.799Z,3.55
2022-10-02T01:42:44.635Z,3.70
2022-10-02T01:45:12.243Z,3.88
2022-10-02T01:47:44.427Z,4.30
2022-10-02T01:50:18.515Z,3.72
2022-10-02T01:52:50.962Z,4.15
2022-10-02T01:55:23.190Z,3.60
2022-10-02T01:57:57.225Z,4.45
2022-10-02T02:00:28.729Z,3.90
2022-10-02T02:03:01.511Z,3.55
2022-10-02T02:05:35.614Z,3.72
2022-10-02T02:08:07.835Z,4.10
2022-10-02T02:10:40.692Z,4.18
2022-10-02T02:13:13.028Z,4.07
2022-10-02T02:15:44.654Z,4.32
2022-10-02T02:18:18.330Z,4.70
2022-10-02T02:20:48.024Z,4.50
2022-10-02T02:23:18.321Z,4.40
2022-10-02T02:25:47.383Z,4.88
2022-10-02T02:28:18.946Z,4.30
2022-10-02T02:30:49.019Z,3.97
2022-10-02T02:33:19.217Z,4.53
2022-10-02T02:35:48.595Z,4.30
2022-10-02T02:38:19.027Z,4.63
2022-10-02T02:40:47.916Z,4.95
2022-10-02T02:43:19.558Z,4.78
2022-10-02T02:45:49.271Z,4.43
2022-10-02T02:48:21.327Z,5.15
2022-10-02T02:50:53.006Z,4.28
2022-10-02T02:53:22.493Z,4.15
2022-10-02T02:55:52.401Z,4.88
2022-10-02T02:58:23.654Z,4.78
2022-10-02T03:00:51.284Z,3.97
2022-10-02T03:03:18.953Z,4.00
2022-10-02T03:05:49.095Z,4.28
2022-10-02T03:08:19.632Z,3.70
2022-10-02T03:10:51.691Z,4.13
2022-10-02T03:13:28.859Z,3.40
2022-10-02T03:16:03.918Z,3.15
2022-10-02T03:18:38.957Z,3.50
2022-10-02T03:21:12.898Z,3.67
2022-10-02T03:23:44.643Z,3.35
2022-10-02T03:26:15.216Z,3.25
2022-10-02T03:28:57.047Z,2.97
2022-10-02T03:31:26.500Z,3.45
2022-10-02T03:33:55.007Z,2.75
2022-10-02T03:36:24.535Z,2.97
2022-10-02T03:39:12.615Z,2.90
2022-10-02T03:41:40.595Z,3.20
2022-10-02T03:44:09.388Z,3.25
2022-10-02T03:46:37.093Z,3.00
2022-10-02T03:49:05.464Z,2.90
2022-10-02T03:51:33.134Z,3.92
2022-10-02T03:54:00.664Z,2.90
2022-10-02T03:56:35.097Z,2.70
2022-10-02T03:59:04.240Z,3.00
2022-10-02T04:01:34.392Z,2.95
2022-10-02T04:04:04.910Z,3.08
2022-10-02T04:06:38.675Z,3.15
2022-10-02T04:09:11.005Z,3.25
2022-10-02T04:11:40.933Z,3.53
2022-10-02T04:14:11.066Z,3.15
2022-10-02T04:16:41.880Z,3.20
2022-10-02T04:19:13.072Z,3.47
2022-10-02T04:21:43.372Z,3.33
2022-10-02T04:24:14.514Z,3.65
2022-10-02T04:26:44.839Z,3.88
2022-10-02T04:29:15.375Z,3.00
2022-10-02T04:31:44.662Z,3.17
2022-10-02T04:34:14.059Z,3.22
2022-10-02T04:36:48.858Z,2.88
2022-10-02T04:39:37.461Z,3.42
2022-10-02T04:42:15.154Z,3.75
2022-10-02T04:44:50.140Z,3.13
2022-10-02T04:47:31.598Z,3.58
2022-10-02T04:50:12.524Z,3.28
2022-10-02T04:52:49.878Z,3.20
2022-10-02T04:55:39.803Z,3.15
2022-10-02T04:58:22.319Z,3.10
2022-10-02T05:00:54.800Z,3.42
2022-10-02T05:03:33.118Z,2.58
2022-10-02T05:06:11.810Z,3.38
2022-10-02T05:08:57.384Z,4.20
2022-10-02T05:11:31.813Z,3.15
2022-10-02T05:14:05.655Z,3.47
2022-10-02T05:16:48.059Z,3.30
2022-10-02T05:19:32.872Z,3.38
2022-10-02T05:22:11.984Z,3.67
2022-10-02T05:24:47.940Z,3.53
2022-10-02T05:27:33.267Z,3.60
2022-10-02T05:30:05.959Z,3.22
2022-10-02T05:32:45.239Z,4.13
2022-10-02T05:35:21.954Z,4.15
2022-10-02T05:37:56.949Z,4.53
2022-10-02T05:40:26.256Z,5.30
2022-10-02T05:42:58.346Z,4.80
2022-10-02T05:45:27.676Z,6.00
2022-10-02T05:47:56.673Z,5.47
2022-10-02T05:50:29.585Z,6.90
2022-10-02T05:52:58.949Z,7.03
2022-10-02T05:55:29.931Z,8.30
2022-10-02T05:58:01.190Z,8.38
2022-10-02T06:00:31.314Z,7.70
2022-10-02T06:03:02.777Z,8.13
2022-10-02T06:05:36.426Z,9.73
2022-10-02T06:08:05.317Z,8.88
2022-10-02T06:10:35.651Z,8.80
2022-10-02T06:13:08.627Z,10.00
2022-10-02T06:15:39.879Z,10.05
2022-10-02T06:18:08.195Z,9.35
2022-10-02T06:20:40.472Z,10.65
2022-10-02T06:23:11.596Z,10.05
2022-10-02T06:25:41.196Z,9.25
2022-10-02T06:28:12.265Z,9.70
2022-10-02T06:30:41.516Z,10.38
2022-10-02T06:33:13.598Z,10.65
2022-10-02T06:35:52.750Z,10.40
2022-10-02T06:38:28.575Z,9.80
2022-10-02T06:41:01.791Z,10.25
2022-10-02T06:43:47.340Z,9.60
2022-10-02T06:46:22.859Z,10.18
2022-10-02T06:48:54.944Z,10.88
2022-10-02T06:51:34.710Z,9.70
2022-10-02T06:54:24.478Z,10.10
2022-10-02T06:57:02.388Z,9.50
2022-10-02T06:59:36.431Z,10.38
2022-10-02T07:02:09.973Z,10.55
2022-10-02T07:04:51.501Z,11.20
2022-10-02T07:07:28.605Z,10.98
2022-10-02T07:10:07.626Z,10.50
2022-10-02T07:12:46.718Z,10.40
2022-10-02T07:15:45.449Z,10.25
2022-10-02T07:18:21.292Z,12.48
2022-10-02T07:20:55.288Z,11.63
2022-10-02T07:23:32.078Z,14.50
2022-10-02T07:26:13.039Z,14.50
2022-10-02T07:28:43.690Z,14.48
2022-10-02T07:31:18.366Z,14.35
2022-10-02T07:33:53.348Z,14.45
2022-10-02T07:36:27.406Z,14.20
2022-10-02T07:39:10.033Z,13.98
2022-10-02T07:41:46.505Z,14.65
2022-10-02T07:44:23.521Z,13.73
2022-10-02T07:46:54.859Z,12.55
2022-10-02T07:49:30.018Z,13.02
2022-10-02T07:51:59.385Z,12.20
2022-10-02T07:54:54.812Z,11.65
2022-10-02T07:57:30.173Z,10.43
2022-10-02T08:00:00.672Z,10.43
2022-10-02T08:02:29.804Z,10.38
2022-10-02T08:04:59.757Z,9.60
2022-10-02T08:07:29.117Z,9.85
2022-10-02T08:09:59.193Z,9.98
2022-10-02T08:12:28.910Z,9.65
2022-10-02T08:14:57.301Z,9.10
2022-10-02T08:17:29.373Z,9.23
2022-10-02T08:20:02.148Z,9.10
2022-10-02T08:22:33.792Z,8.77
2022-10-02T08:25:05.561Z,7.95
2022-10-02T08:27:51.095Z,7.95
2022-10-02T08:30:18.940Z,7.70
2022-10-02T08:32:47.943Z,6.65
2022-10-02T08:35:19.851Z,7.75
2022-10-02T08:37:55.241Z,7.10
2022-10-02T08:40:36.732Z,6.35
2022-10-02T08:43:28.522Z,6.10
2022-10-02T08:46:34.319Z,5.85
2022-10-02T08:49:19.567Z,5.07
2022-10-02T08:52:11.212Z,4.60
2022-10-02T08:55:05.602Z,4.53
2022-10-02T08:57:48.371Z,3.83
2022-10-02T09:00:21.667Z,4.13
2022-10-02T09:03:04.053Z,4.03
2022-10-02T09:05:41.660Z,3.20
2022-10-02T09:08:28.155Z,3.10
2022-10-02T09:11:14.297Z,3.47
2022-10-02T09:13:56.896Z,3.00
2022-10-02T09:16:29.297Z,3.22
2022-10-02T09:19:00.405Z,2.65
2022-10-02T09:21:44.318Z,3.45
2022-10-02T09:24:30.050Z,2.53
2022-10-02T09:27:12.563Z,2.47
2022-10-02T09:30:02.073Z,2.03
2022-10-02T09:32:44.627Z,2.28
2022-10-02T09:35:30.017Z,2.10
2022-10-02T09:38:14.357Z,1.60
2022-10-02T09:40:56.502Z,1.90
2022-10-02T09:43:39.725Z,1.63
2022-10-02T09:46:29.156Z,2.10
2022-10-02T09:49:25.520Z,1.73
2022-10-02T09:52:03.526Z,1.60
2022-10-02T09:54:59.929Z,1.60
2022-10-02T09:57:38.706Z,1.65
2022-10-02T10:00:18.213Z,1.33
2022-10-02T10:03:03.483Z,1.52
2022-10-02T10:05:55.097Z,1.30
2022-10-02T10:08:42.148Z,1.20
2022-10-02T10:11:30.508Z,1.27
2022-10-02T10:14:12.878Z,1.35
2022-10-02T10:17:06.596Z,1.40
2022-10-02T10:19:49.330Z,1.40
2022-10-02T10:22:28.792Z,1.40
2022-10-02T10:25:15.298Z,1.20
2022-10-02T10:27:57.007Z,1.45
2022-10-02T10:30:57.825Z,1.40
2022-10-02T10:33:36.074Z,1.20
2022-10-02T10:36:46.918Z,1.55
2022-10-02T10:39:30.751Z,1.25
2022-10-02T10:42:14.696Z,1.63
2022-10-02T10:45:01.604Z,1.10
2022-10-02T10:47:43.740Z,1.42
2022-10-02T10:50:38.919Z,1.20
2022-10-02T10:53:29.233Z,1.10
2022-10-02T10:56:14.502Z,1.08
2022-10-02T10:58:53.035Z,0.68
2022-10-02T11:01:24.425Z,0.80
2022-10-02T11:04:03.964Z,0.90
2022-10-02T11:06:40.132Z,0.90
2022-10-02T11:09:38.718Z,0.80
2022-10-02T11:12:17.788Z,0.88
2022-10-02T11:14:58.424Z,0.60
2022-10-02T11:17:40.844Z,0.77
2022-10-02T11:20:19.328Z,0.80
2022-10-02T11:23:16.855Z,0.80
2022-10-02T11:25:55.337Z,0.95
2022-10-02T11:28:31.811Z,0.88
2022-10-02T11:31:07.369Z,1.00
2022-10-02T11:33:44.805Z,1.00
2022-10-02T11:36:41.825Z,1.00
2022-10-02T11:39:19.886Z,0.98
2022-10-02T11:42:05.979Z,1.08
2022-10-02T11:45:04.486Z,1.02
2022-10-02T11:47:42.049Z,0.98
2022-10-02T11:50:24.808Z,1.08
2022-10-02T11:53:02.342Z,0.90
2022-10-02T11:55:37.987Z,1.00
2022-10-02T11:58:21.493Z,1.15
2022-10-02T12:01:16.877Z,0.90
2022-10-02T12:03:54.251Z,0.80
2022-10-02T12:06:30.031Z,0.90
2022-10-02T12:09:01.454Z,0.82
2022-10-02T12:11:38.730Z,0.98
2022-10-02T12:14:12.902Z,1.20
2022-10-02T12:16:48.836Z,1.02
2022-10-02T12:19:21.023Z,0.80
2022-10-02T12:22:12.181Z,1.00
2022-10-02T12:25:02.161Z,1.33
2022-10-02T12:27:37.853Z,0.93
2022-10-02T12:30:13.632Z,1.02
2022-10-02T12:32:54.171Z,0.90
2022-10-02T12:35:37.690Z,0.60
2022-10-02T12:38:14.467Z,0.70
2022-10-02T12:40:49.466Z,0.80
2022-10-02T12:43:48.990Z,0.70
2022-10-02T12:46:26.590Z,0.90
2022-10-02T12:49:01.838Z,0.73
2022-10-02T12:51:41.654Z,0.60
2022-10-02T12:54:24.008Z,0.80
2022-10-02T12:57:03.140Z,0.73
2022-10-02T12:59:38.961Z,0.70
2022-10-02T13:02:37.517Z,0.65
2022-10-02T13:05:30.544Z,1.00
2022-10-02T13:08:22.373Z,0.80
2022-10-02T13:10:57.396Z,0.77
2022-10-02T13:13:31.815Z,0.50
2022-10-02T13:16:04.573Z,1.35
2022-10-02T13:18:39.539Z,0.60
2022-10-02T13:21:11.935Z,1.25
2022-10-02T13:23:42.681Z,0.40
2022-10-02T13:26:15.905Z,0.50
2022-10-02T13:28:58.297Z,0.47
2022-10-02T13:31:36.825Z,0.60
2022-10-02T13:34:13.752Z,0.98
2022-10-02T13:36:51.989Z,0.55
2022-10-02T13:39:37.584Z,0.73
2022-10-02T13:42:16.898Z,0.50
2022-10-02T13:44:53.633Z,0.40
2022-10-02T13:47:31.737Z,0.50
2022-10-02T13:50:08.260Z,0.60
2022-10-02T13:52:41.234Z,0.52
2022-10-02T13:55:18.810Z,0.40
2022-10-02T13:57:52.914Z,0.77
2022-10-02T14:00:24.056Z,0.50
2022-10-02T14:03:03.739Z,0.55
2022-10-02T14:05:35.773Z,0.45
2022-10-02T14:08:13.812Z,0.30
2022-10-02T14:10:45.002Z,0.50
2022-10-02T14:13:18.937Z,0.73
2022-10-02T14:15:51.968Z,0.93
2022-10-02T14:18:27.996Z,0.40
2022-10-02T14:21:05.651Z,0.40
2022-10-02T14:23:45.122Z,0.43
2022-10-02T14:26:15.837Z,0.40
2022-10-02T14:29:01.372Z,0.77
2022-10-02T14:31:44.753Z,0.50
2022-10-02T14:34:27.215Z,0.57
2022-10-02T14:37:02.460Z,0.63
2022-10-02T14:39:48.927Z,0.50
2022-10-02T14:42:35.654Z,0.57
2022-10-02T14:56:08.652Z,0.60
2022-10-02T14:58:44.205Z,0.60
2022-10-02T15:01:21.301Z,0.60
2022-10-02T15:03:55.339Z,0.60
2022-10-02T15:06:26.952Z,0.93
2022-10-02T15:08:57.095Z,0.82
2022-10-02T15:11:29.079Z,1.02
2022-10-02T15:13:58.771Z,0.80
2022-10-02T15:16:45.237Z,0.98
2022-10-02T15:19:16.900Z,0.80
2022-10-02T15:21:48.532Z,0.70
2022-10-02T15:24:25.031Z,0.68
2022-10-02T15:27:05.553Z,0.60
2022-10-02T15:29:39.616Z,0.63
2022-10-02T15:32:23.422Z,1.05
2022-10-02T15:34:59.579Z,1.10
2022-10-02T15:37:29.564Z,0.80
2022-10-02T15:40:06.105Z,0.90
2022-10-02T15:42:49.756Z,1.00
2022-10-02T15:45:40.462Z,1.00
2022-10-02T15:48:20.636Z,0.70
2022-10-02T15:50:53.759Z,0.82
2022-10-02T15:53:38.703Z,0.90
2022-10-02T15:56:18.883Z,0.80
2022-10-02T15:58:57.388Z,0.90
2022-10-02T16:01:42.869Z,1.00
2022-10-02T16:04:18.337Z,0.77
2022-10-02T16:06:53.741Z,0.77
2022-10-02T16:09:45.931Z,0.80
2022-10-02T16:12:41.610Z,1.13
2022-10-02T16:15:25.628Z,0.98
2022-10-02T16:18:08.160Z,1.08
2022-10-02T16:20:45.016Z,0.95
2022-10-02T16:23:20.560Z,0.80
2022-10-02T16:26:02.886Z,1.00
2022-10-02T16:28:36.532Z,0.90
2022-10-02T16:31:12.921Z,1.25
2022-10-02T16:33:47.949Z,1.00
2022-10-02T16:36:30.265Z,0.80
2022-10-02T16:39:04.888Z,0.82
2022-10-02T16:41:47.880Z,0.68
2022-10-02T16:44:24.214Z,0.90
2022-10-02T16:46:54.635Z,1.10
2022-10-02T16:49:26.076Z,1.10
2022-10-02T16:51:58.654Z,1.20
2022-10-02T16:54:30.959Z,0.73
2022-10-02T16:57:02.336Z,1.00
2022-10-02T16:59:33.348Z,0.82
2022-10-02T17:02:19.533Z,0.90
2022-10-02T17:04:53.945Z,0.80
2022-10-02T17:10:03.887Z,0.75
2022-10-02T17:12:35.178Z,1.10
2022-10-02T17:15:08.321Z,0.90
2022-10-02T17:17:49.903Z,0.77
2022-10-02T17:20:26.526Z,1.65
2022-10-02T17:22:58.246Z,0.93
2022-10-02T17:25:29.898Z,0.90
2022-10-02T17:28:03.265Z,1.00
2022-10-02T17:30:46.055Z,0.90
2022-10-02T17:33:15.885Z,1.13
2022-10-02T17:35:50.067Z,0.80
2022-10-02T17:38:26.302Z,0.93
2022-10-02T17:40:57.475Z,1.00
2022-10-02T17:43:31.231Z,0.82
2022-10-02T17:46:05.584Z,0.98
2022-10-02T17:48:40.539Z,0.90
2022-10-02T17:51:51.875Z,0.80
2022-10-02T17:54:44.589Z,0.88
2022-10-02T17:57:29.759Z,1.23
2022-10-02T18:00:09.905Z,0.85
2022-10-02T18:02:52.090Z,0.90
2022-10-02T18:05:28.183Z,1.10
2022-10-02T18:08:00.996Z,1.10
2022-10-02T18:10:31.558Z,1.17
2022-10-02T18:13:07.991Z,1.27
2022-10-02T18:15:43.303Z,1.30
2022-10-02T18:18:30.657Z,1.30
2022-10-02T18:21:10.820Z,0.90
2022-10-02T18:24:11.424Z,1.00
2022-10-02T18:26:45.110Z,1.02
2022-10-02T18:29:30.406Z,1.17
2022-10-02T18:32:08.684Z,1.30
2022-10-02T18:34:45.914Z,1.25
2022-10-02T18:37:25.052Z,1.00
2022-10-02T18:40:03.636Z,1.13
2022-10-02T18:42:40.854Z,1.27
2022-10-02T18:45:16.226Z,1.40
2022-10-02T18:47:50.410Z,1.20
2022-10-02T18:50:27.974Z,1.45
2022-10-02T18:53:07.698Z,1.00
2022-10-02T18:55:47.857Z,1.20
2022-10-02T18:58:36.825Z,1.30
2022-10-02T19:01:19.529Z,1.30
2022-10-02T19:03:57.314Z,1.40
2022-10-02T19:06:30.263Z,1.20
2022-10-02T19:09:19.114Z,1.48
2022-10-02T19:11:56.791Z,1.30
2022-10-02T19:14:27.552Z,1.00
2022-10-02T19:17:00.363Z,1.73
2022-10-02T19:19:29.440Z,1.40
2022-10-02T19:21:59.771Z,0.90
2022-10-02T19:24:31.287Z,1.35
2022-10-02T19:27:01.301Z,1.13
2022-10-02T19:29:31.044Z,1.08
2022-10-02T19:31:59.703Z,1.00
2022-10-02T19:34:30.534Z,1.17
2022-10-02T19:36:59.325Z,1.20
2022-10-02T19:39:30.501Z,1.42
2022-10-02T19:42:03.055Z,1.30
2022-10-02T19:44:32.193Z,1.08
2022-10-02T19:47:00.806Z,1.05
2022-10-02T19:49:30.311Z,1.30
2022-10-02T19:51:57.971Z,1.08
2022-10-02T19:54:27.253Z,0.90
2022-10-02T19:56:58.709Z,1.25
2022-10-02T19:59:29.361Z,1.30
2022-10-02T20:02:00.645Z,1.30
2022-10-02T20:04:30.060Z,1.40
2022-10-02T20:06:59.252Z,1.20
2022-10-02T20:09:30.893Z,1.38
2022-10-02T20:12:01.145Z,1.23
2022-10-02T20:14:33.119Z,1.08
2022-10-02T20:17:12.912Z,1.20
2022-10-02T20:19:43.383Z,0.90
2022-10-02T20:22:24.157Z,1.48
2022-10-02T20:24:53.469Z,1.23
2022-10-02T20:27:23.348Z,1.20
2022-10-02T20:29:56.744Z,1.27
2022-10-02T20:32:27.047Z,1.10
2022-10-02T20:34:56.276Z,1.10
2022-10-02T20:37:27.135Z,0.90
2022-10-02T20:40:00.041Z,3.67
2022-10-02T20:42:33.321Z,2.05
2022-10-02T20:45:02.165Z,1.02
2022-10-02T20:47:41.929Z,1.35
2022-10-02T20:50:26.368Z,1.92
2022-10-02T20:53:16.160Z,1.17
2022-10-02T20:55:47.894Z,1.10
2022-10-02T20:58:36.315Z,1.75
2022-10-02T21:01:13.430Z,0.95
2022-10-02T21:03:55.825Z,1.00
2022-10-02T21:06:47.433Z,1.08
2022-10-02T21:09:36.769Z,0.93
2022-10-02T21:12:10.902Z,0.93
2022-10-02T21:15:05.391Z,0.93
2022-10-02T21:17:47.951Z,1.05
2022-10-02T21:20:50.955Z,0.80
2022-10-02T21:23:34.222Z,1.10
2022-10-02T21:26:20.571Z,1.00
2022-10-02T21:29:09.410Z,0.93
2022-10-02T21:31:48.200Z,0.70
2022-10-02T21:34:21.278Z,0.90
2022-10-02T21:36:52.773Z,1.15
2022-10-02T21:39:43.880Z,1.10
2022-10-02T21:42:29.282Z,0.85
2022-10-02T21:45:31.260Z,0.82
2022-10-02T21:48:30.599Z,2.55
2022-10-02T21:51:16.948Z,0.80
2022-10-02T21:53:51.808Z,0.90
2022-10-02T21:56:40.352Z,1.00
2022-10-02T21:59:31.292Z,1.13
2022-10-02T22:02:19.915Z,0.90
2022-10-02T22:05:20.160Z,1.23
2022-10-02T22:07:52.218Z,1.17
2022-10-02T22:10:28.773Z,1.58
2022-10-02T22:13:03.917Z,1.20
2022-10-02T22:15:39.506Z,1.75
2022-10-02T22:18:10.468Z,1.52
2022-10-02T22:20:44.237Z,1.80
2022-10-02T22:23:20.425Z,1.15
2022-10-02T22:25:58.612Z,1.63
2022-10-02T22:28:39.123Z,1.65
2022-10-02T22:31:17.812Z,1.65
2022-10-02T22:33:55.698Z,1.48
2022-10-02T22:36:36.852Z,1.02
2022-10-02T22:39:08.625Z,1.45
2022-10-02T22:41:39.429Z,1.10
2022-10-02T22:44:10.454Z,1.17
2022-10-02T22:46:41.548Z,1.40
2022-10-02T22:49:16.397Z,1.15
2022-10-02T22:51:47.269Z,1.63
2022-10-02T22:54:22.911Z,1.35
2022-10-02T22:56:53.196Z,1.30
2022-10-02T22:59:25.032Z,1.63
2022-10-02T23:01:54.859Z,1.30
2022-10-02T23:04:25.311Z,1.38
2022-10-02T23:06:56.767Z,1.70
2022-10-02T23:09:27.360Z,1.27
2022-10-02T23:11:56.884Z,1.48
2022-10-02T23:14:26.841Z,1.30
2022-10-02T23:17:01.142Z,2.03
2022-10-02T23:21:57.962Z,1.40
2022-10-02T23:24:29.799Z,1.88
2022-10-02T23:27:06.399Z,1.90
2022-10-02T23:29:42.397Z,2.00
2022-10-02T23:32:14.818Z,2.08
2022-10-02T23:34:45.751Z,1.77
2022-10-02T23:37:16.890Z,2.25
2022-10-02T23:39:48.018Z,1.75
2022-10-02T23:42:18.512Z,2.10
2022-10-02T23:44:50.060Z,2.40
2022-10-02T23:47:25.344Z,2.10
2022-10-02T23:49:53.577Z,1.90
2022-10-02T23:52:42.129Z,2.20
2022-10-02T23:55:19.794Z,2.58
2022-10-02T23:57:58.208Z,2.42
